Time;durP1;ratioP1;P1;durP2;ratioP2;P2;SDS_P1;SDS_P2;PMS_P1;PMS_P2;Temp;Humidity;BMP_temperature;BMP_pressure;BME280_temperature;BME280_humidity;BME280_pressure;Samples;Min_cycle;Max_cycle;Signal;HPM_P1;HPM_P2
2022/05/19 00:01:34;;;;;;;5.05;3.67;;;;;;;7.72;100.00;99247.88;1518049;94;21049;-77
2022/05/19 00:04:01;;;;;;;8.57;3.60;;;;;;;7.75;100.00;99248.88;1520914;94;21101;-76
2022/05/19 00:06:28;;;;;;;4.57;3.33;;;;;;;7.78;100.00;99237.27;1520790;94;21159;-75
2022/05/19 00:08:55;;;;;;;5.07;3.80;;;;;;;7.85;100.00;99231.21;1520849;94;21054;-76
2022/05/19 00:11:31;;;;;;;5.17;3.80;;;;;;;7.88;100.00;99227.66;1520706;93;21077;-76
2022/05/19 00:13:59;;;;;;;5.33;3.90;;;;;;;7.94;100.00;99212.15;1520823;94;21062;-74
2022/05/19 00:16:26;;;;;;;5.43;3.70;;;;;;;8.00;100.00;99218.69;1520934;94;21018;-77
2022/05/19 00:18:53;;;;;;;7.13;4.07;;;;;;;8.04;100.00;99209.75;1520795;94;21049;-77
2022/05/19 00:21:20;;;;;;;4.70;3.70;;;;;;;8.10;100.00;99204.51;1520514;94;21050;-76
2022/05/19 00:23:47;;;;;;;5.43;3.50;;;;;;;8.16;100.00;99199.78;1520493;94;21106;-76
2022/05/19 00:26:14;;;;;;;4.87;3.40;;;;;;;8.22;100.00;99184.77;1520622;94;21081;-77
2022/05/19 00:28:41;;;;;;;9.60;3.97;;;;;;;8.30;100.00;99183.88;1529472;93;21046;-76
2022/05/19 00:31:08;;;;;;;10.93;4.13;;;;;;;8.36;100.00;99165.67;1521718;93;21055;-73
2022/05/19 00:33:37;;;;;;;8.30;3.70;;;;;;;8.42;100.00;99156.89;1547566;93;21616;-74
2022/05/19 00:36:16;;;;;;;6.00;3.90;;;;;;;8.46;100.00;99144.73;1528174;93;21051;-73
2022/05/19 00:38:44;;;;;;;5.95;4.03;;;;;;;8.51;100.00;99125.34;1519435;93;21623;-73
2022/05/19 00:41:12;;;;;;;4.47;3.77;;;;;;;8.57;100.00;99112.52;1538924;93;21070;-73
2022/05/19 00:43:46;;;;;;;4.03;3.47;;;;;;;8.62;100.00;99092.56;1577493;90;21105;-73
2022/05/19 00:46:23;;;;;;;5.28;3.60;;;;;;;8.67;100.00;99087.47;1567918;90;21044;-73
2022/05/19 00:49:06;;;;;;;5.53;3.70;;;;;;;8.72;100.00;99071.59;1567840;90;21084;-74
2022/05/19 00:51:42;;;;;;;4.55;3.27;;;;;;;8.78;100.00;99059.77;1567959;90;21607;-73
2022/05/19 00:54:12;;;;;;;3.60;3.30;;;;;;;8.81;100.00;99045.41;1602292;88;21047;-73
2022/05/19 00:56:53;;;;;;;3.95;3.20;;;;;;;8.81;100.00;99037.31;1607028;88;21106;-73
2022/05/19 00:59:30;;;;;;;5.13;3.40;;;;;;;8.79;100.00;99018.32;1603992;88;21094;-74
2022/05/19 01:01:58;;;;;;;5.27;3.40;;;;;;;8.77;100.00;98998.28;1624353;88;21479;-73
2022/05/19 01:04:29;;;;;;;3.90;3.12;;;;;;;8.78;100.00;98987.81;1611267;88;21061;-73
2022/05/19 01:07:01;;;;;;;5.78;3.30;;;;;;;8.79;100.00;98967.94;1582243;88;21096;-72
2022/05/19 01:09:28;;;;;;;4.53;3.40;;;;;;;8.80;100.00;98956.14;1604010;89;21062;-73
2022/05/19 01:11:56;;;;;;;4.03;3.50;;;;;;;8.83;100.00;98935.53;1565592;89;21057;-73
2022/05/19 01:14:23;;;;;;;7.05;3.20;;;;;;;8.86;100.00;98911.42;1614798;89;21563;-73
2022/05/19 01:16:51;;;;;;;5.22;3.08;;;;;;;8.90;100.00;98891.14;1614826;89;21138;-72
2022/05/19 01:19:37;;;;;;;6.33;3.17;;;;;;;8.96;100.00;98889.55;1578211;89;21077;-73
2022/05/19 01:22:16;;;;;;;4.12;2.87;;;;;;;9.00;100.00;98866.59;1580695;89;21125;-73
2022/05/19 01:24:57;;;;;;;5.25;3.35;;;;;;;9.04;100.00;98852.53;1557085;91;21062;-73
2022/05/19 01:27:24;;;;;;;4.87;3.40;;;;;;;9.07;100.00;98841.38;1563348;90;21106;-73
2022/05/19 01:29:51;;;;;;;4.08;3.37;;;;;;;9.10;100.00;98833.40;1584764;90;21547;-74
2022/05/19 01:32:27;;;;;;;5.58;3.35;;;;;;;9.11;100.00;98812.98;1584789;90;21125;-73
2022/05/19 01:34:54;;;;;;;3.90;3.50;;;;;;;9.13;100.00;98804.70;1584407;90;21062;-73
2022/05/19 01:37:22;;;;;;;3.80;3.40;;;;;;;9.16;100.00;98781.41;1595488;90;21082;-74
2022/05/19 01:40:14;;;;;;;4.03;3.30;;;;;;;9.18;100.00;98778.00;1585405;90;21100;-73
2022/05/19 01:43:05;;;;;;;4.60;3.40;;;;;;;9.21;100.00;98714.77;1580962;90;21089;-73
2022/05/19 01:45:47;;;;;;;3.37;3.08;;;;;;;9.21;100.00;98714.77;1585317;88;21094;-72
2022/05/19 01:48:41;;;;;;;3.70;3.10;;;;;;;9.20;100.00;98703.12;1539106;88;21575;-72
2022/05/19 01:51:30;;;;;;;6.60;3.10;;;;;;;9.19;100.00;98696.56;1538597;93;21721;-74
2022/05/19 01:54:20;;;;;;;5.10;2.95;;;;;;;9.18;100.00;98686.30;1538423;93;21110;-72
2022/05/19 01:57:11;;;;;;;3.70;3.15;;;;;;;9.19;100.00;98681.73;1538831;93;21114;-73
2022/05/19 02:00:06;;;;;;;3.77;3.00;;;;;;;9.18;100.00;98670.65;1484868;97;21120;-73
2022/05/19 02:03:02;;;;;;;4.95;3.20;;;;;;;9.17;100.00;98658.18;1485154;97;21121;-73
2022/05/19 02:05:44;;;;;;;4.92;2.90;;;;;;;9.15;100.00;98644.06;1468474;96;21184;-73
2022/05/19 02:08:17;;;;;;;4.30;3.27;;;;;;;9.13;100.00;98641.03;1448927;98;21096;-73
2022/05/19 02:10:48;;;;;;;3.77;3.08;;;;;;;9.12;100.00;98639.91;1465501;98;21149;-74
2022/05/19 02:13:15;;;;;;;4.30;3.40;;;;;;;9.14;100.00;98628.41;1465429;98;21096;-73
2022/05/19 02:15:45;;;;;;;3.83;3.00;;;;;;;9.14;100.00;98617.62;1465401;98;21217;-74
2022/05/19 02:18:15;;;;;;;3.83;2.90;;;;;;;9.15;100.00;98609.83;1465289;98;21084;-73
2022/05/19 02:20:42;;;;;;;4.05;3.42;;;;;;;9.17;100.00;98601.05;1469397;98;21088;-73
2022/05/19 02:23:10;;;;;;;3.12;2.87;;;;;;;9.18;100.00;98591.09;1469435;98;21096;-73
2022/05/19 02:25:50;;;;;;;3.42;3.05;;;;;;;9.19;100.00;98589.55;1479398;97;21157;-72
2022/05/19 02:28:40;;;;;;;5.55;3.72;;;;;;;9.20;100.00;98583.63;1464833;97;21117;-72
2022/05/19 02:31:08;;;;;;;8.20;3.60;;;;;;;9.20;100.00;98580.41;1483477;94;21113;-73
2022/05/19 02:33:36;;;;;;;4.20;3.47;;;;;;;9.22;100.00;98578.86;1483720;97;21108;-75
2022/05/19 02:36:05;;;;;;;6.25;3.70;;;;;;;9.22;100.00;98581.04;1470050;97;21100;-74
2022/05/19 02:38:32;;;;;;;9.08;4.10;;;;;;;9.26;100.00;98573.38;1435714;98;21112;-73
2022/05/19 02:40:59;;;;;;;6.65;3.72;;;;;;;9.27;100.00;98571.84;1460609;98;21099;-73
2022/05/19 02:43:26;;;;;;;4.75;3.50;;;;;;;9.28;100.00;98562.73;1460491;98;21125;-73
2022/05/19 02:45:52;;;;;;;6.05;4.00;;;;;;;9.27;100.00;98561.58;1503532;94;21659;-73
2022/05/19 02:48:20;;;;;;;7.15;3.75;;;;;;;9.27;100.00;98542.70;1527298;94;21175;-72
2022/05/19 02:50:48;;;;;;;4.60;3.37;;;;;;;9.29;100.00;98537.41;1531209;92;21154;-74
2022/05/19 02:53:15;;;;;;;4.92;3.70;;;;;;;9.31;100.00;98530.47;1557462;92;21611;-74
2022/05/19 02:55:43;;;;;;;5.47;3.50;;;;;;;9.33;100.00;98522.17;1573824;88;21114;-74
2022/05/19 02:58:11;;;;;;;6.17;3.65;;;;;;;9.34;100.00;98526.03;1625590;88;21122;-73
2022/05/19 03:00:40;;;;;;;4.47;3.52;;;;;;;9.35;100.00;98511.52;1625679;88;21085;-73
2022/05/19 03:03:07;;;;;;;4.80;3.60;;;;;;;9.38;100.00;98506.23;1625717;88;21087;-73
2022/05/19 03:05:34;;;;;;;5.92;3.77;;;;;;;9.39;100.00;98503.33;1625434;88;21090;-73
2022/05/19 03:08:02;;;;;;;5.55;3.85;;;;;;;9.41;100.00;98505.31;1625693;88;21543;-74
2022/05/19 03:10:29;;;;;;;8.18;4.28;;;;;;;9.45;100.00;98506.56;1625290;88;21121;-73
2022/05/19 03:12:56;;;;;;;6.05;3.87;;;;;;;9.49;100.00;98494.84;1625602;88;21555;-74
2022/05/19 03:15:24;;;;;;;5.53;3.80;;;;;;;9.51;100.00;98486.06;1625652;88;21097;-73
2022/05/19 03:17:51;;;;;;;6.58;4.08;;;;;;;9.54;100.00;98483.46;1632490;87;21535;-73
2022/05/19 03:20:18;;;;;;;4.95;4.28;;;;;;;9.57;100.00;98477.67;1633532;87;21114;-73
2022/05/19 03:22:45;;;;;;;6.25;4.10;;;;;;;9.59;100.00;98481.81;1655078;86;21026;-74
2022/05/19 03:25:12;;;;;;;5.97;4.20;;;;;;;9.63;100.00;98473.65;1632924;87;21563;-75
2022/05/19 03:27:40;;;;;;;7.47;4.85;;;;;;;9.65;100.00;98470.72;1655035;86;21054;-74
2022/05/19 03:30:11;;;;;;;6.20;4.35;;;;;;;9.66;100.00;98461.59;1654846;86;21083;-76
2022/05/19 03:32:38;;;;;;;8.38;4.80;;;;;;;9.68;100.00;98467.63;1655336;86;21576;-75
2022/05/19 03:35:06;;;;;;;7.53;4.75;;;;;;;9.68;100.00;98467.63;1656162;86;21062;-75
2022/05/19 03:37:33;;;;;;;8.88;4.80;;;;;;;9.69;100.00;98467.95;1655607;86;21062;-74
2022/05/19 03:40:00;;;;;;;10.32;5.42;;;;;;;9.68;100.00;98464.42;1654804;86;21575;-74
2022/05/19 03:42:27;;;;;;;10.15;5.37;;;;;;;9.71;100.00;98463.70;1634328;87;21054;-74
2022/05/19 03:44:54;;;;;;;11.75;6.00;;;;;;;9.74;100.00;98466.82;1649893;85;21091;-76
2022/05/19 03:47:21;;;;;;;8.88;5.85;;;;;;;9.77;100.00;98466.39;1651403;86;21088;-74
2022/05/19 03:49:49;;;;;;;11.57;6.25;;;;;;;9.81;100.00;98469.52;1605066;88;21409;-75
2022/05/19 03:52:16;;;;;;;10.50;6.20;;;;;;;9.84;100.00;98471.81;1680673;84;21001;-73
2022/05/19 03:54:44;;;;;;;12.00;6.65;;;;;;;9.88;100.00;98474.44;1682464;85;21596;-74
2022/05/19 03:57:13;;;;;;;13.75;6.92;;;;;;;9.93;100.00;98479.20;1660945;85;21583;-75
2022/05/19 03:59:40;;;;;;;11.88;6.50;;;;;;;9.99;100.00;98475.17;1630819;87;21095;-75
2022/05/19 04:02:07;;;;;;;10.82;7.08;;;;;;;10.07;100.00;98477.69;1630993;87;21047;-75
2022/05/19 04:04:35;;;;;;;13.20;7.22;;;;;;;10.13;100.00;98479.22;1661081;85;21107;-73
2022/05/19 04:07:02;;;;;;;15.15;7.35;;;;;;;10.20;100.00;98474.68;1661227;85;21051;-75
2022/05/19 04:09:31;;;;;;;11.43;6.40;;;;;;;10.26;100.00;98469.26;1631108;87;21091;-74
2022/05/19 04:11:59;;;;;;;10.68;6.17;;;;;;;10.35;100.00;98475.84;1651476;86;21131;-74
2022/05/19 04:14:28;;;;;;;11.63;5.80;;;;;;;10.39;100.00;98486.05;1679483;85;21039;-74
2022/05/19 04:16:55;;;;;;;9.18;5.03;;;;;;;10.44;100.00;98494.86;1630964;87;21051;-74
2022/05/19 04:19:22;;;;;;;10.40;4.90;;;;;;;10.47;100.00;98499.86;1661144;85;21512;-73
2022/05/19 04:21:49;;;;;;;9.63;5.35;;;;;;;10.50;100.00;98514.31;1661241;85;21528;-73
2022/05/19 04:24:17;;;;;;;8.80;4.65;;;;;;;10.49;100.00;98522.09;1682693;85;21480;-74
2022/05/19 04:26:44;;;;;;;6.03;4.55;;;;;;;10.47;100.00;98532.81;1682589;85;21050;-73
2022/05/19 04:29:11;;;;;;;9.98;4.80;;;;;;;10.45;100.00;98550.58;1682694;85;21118;-74
2022/05/19 04:31:38;;;;;;;8.08;5.00;;;;;;;10.45;100.00;98556.81;1682516;85;21051;-74
2022/05/19 04:34:06;;;;;;;10.00;5.33;;;;;;;10.49;100.00;98575.31;1682272;85;21058;-73
2022/05/19 04:36:33;;;;;;;8.70;4.90;;;;;;;10.54;100.00;98576.89;1682645;85;21002;-74
2022/05/19 04:39:00;;;;;;;8.78;4.97;;;;;;;10.59;100.00;98579.28;1682366;85;21091;-74
2022/05/19 04:41:29;;;;;;;10.23;5.37;;;;;;;10.70;100.00;98585.94;1682640;85;21063;-74
2022/05/19 04:43:56;;;;;;;12.70;7.08;;;;;;;10.80;100.00;98586.36;1676887;85;21042;-74
2022/05/19 04:46:23;;;;;;;13.62;7.42;;;;;;;10.91;100.00;98591.66;1658515;85;21608;-73
2022/05/19 04:48:51;;;;;;;17.27;8.33;;;;;;;11.01;100.00;98600.19;1659842;85;21086;-74
2022/05/19 04:51:18;;;;;;;18.23;9.08;;;;;;;11.07;100.00;98609.86;1680982;85;21098;-74
2022/05/19 04:53:44;;;;;;;19.27;9.70;;;;;;;11.12;100.00;98628.97;1660030;85;21083;-73
2022/05/19 04:56:11;;;;;;;18.95;9.38;;;;;;;11.17;100.00;98640.86;1681173;85;21551;-75
2022/05/19 04:58:39;;;;;;;17.85;8.43;;;;;;;11.23;100.00;98655.42;1681325;85;21536;-75
2022/05/19 05:01:08;;;;;;;16.48;7.70;;;;;;;11.34;100.00;98668.30;1614116;87;21055;-74
2022/05/19 05:03:37;;;;;;;16.45;7.75;;;;;;;11.53;100.00;98668.50;1680947;85;21099;-75
2022/05/19 05:06:04;;;;;;;13.10;7.05;;;;;;;11.71;100.00;98675.96;1681006;85;21047;-74
2022/05/19 05:08:31;;;;;;;19.12;11.55;;;;;;;11.90;100.00;98685.09;1651454;84;21102;-75
2022/05/19 05:10:59;;;;;;;74.00;63.15;;;;;;;12.03;100.00;98693.19;1679885;85;21543;-74
2022/05/19 05:13:27;;;;;;;43.00;34.95;;;;;;;12.12;100.00;98714.93;1664601;85;21027;-76
2022/05/19 05:15:55;;;;;;;14.10;7.58;;;;;;;12.29;100.00;98742.41;1678486;85;21075;-75
2022/05/19 05:18:22;;;;;;;27.67;19.05;;;;;;;12.47;100.00;98755.26;1656422;85;21503;-76
2022/05/19 05:20:49;;;;;;;49.20;33.92;;;;;;;12.64;100.00;98782.73;1678755;85;21086;-76
2022/05/19 05:23:16;;;;;;;28.30;18.80;;;;;;;12.79;100.00;98810.92;1650641;86;21026;-75
2022/05/19 05:25:43;;;;;;;12.65;6.28;;;;;;;12.97;100.00;98829.20;1648582;86;21500;-73
2022/05/19 05:28:10;;;;;;;7.55;4.50;;;;;;;13.20;100.00;98860.41;1647057;86;21061;-76
2022/05/19 05:30:37;;;;;;;9.33;5.45;;;;;;;13.36;100.00;98903.36;1645790;85;21054;-74
2022/05/19 05:33:08;;;;;;;63.15;51.92;;;;;;;13.56;100.00;98941.27;1665754;85;21076;-75
2022/05/19 05:35:36;;;;;;;29.48;21.73;;;;;;;13.78;100.00;98989.86;1665537;85;21083;-76
2022/05/19 05:38:05;;;;;;;24.00;14.78;;;;;;;14.04;100.00;99030.46;1662277;85;20984;-75
2022/05/19 05:40:32;;;;;;;13.28;7.87;;;;;;;14.23;100.00;99082.20;1661596;85;21001;-74
2022/05/19 05:43:10;;;;;;;8.08;5.42;;;;;;;14.39;100.00;99131.16;1632218;87;21042;-76
2022/05/19 05:45:38;;;;;;;34.73;23.38;;;;;;;14.56;100.00;99160.05;1691825;84;21570;-73
2022/05/19 05:48:06;;;;;;;148.62;116.45;;;;;;;14.66;100.00;99216.72;1709072;83;21058;-75
2022/05/19 05:50:33;;;;;;;36.40;26.42;;;;;;;14.77;100.00;99265.86;1709198;83;21051;-74
2022/05/19 05:53:00;;;;;;;12.65;6.35;;;;;;;14.87;100.00;99291.76;1689094;84;21012;-75
2022/05/19 05:55:29;;;;;;;12.13;6.47;;;;;;;15.12;100.00;99325.85;1709315;83;21050;-73
2022/05/19 05:57:57;;;;;;;8.80;4.72;;;;;;;15.30;100.00;99361.37;1712759;83;21059;-76
2022/05/19 06:00:25;;;;;;;61.05;45.17;;;;;;;15.55;100.00;99373.69;1709185;83;20999;-73
2022/05/19 06:02:53;;;;;;;42.58;29.55;;;;;;;15.66;100.00;99423.09;1709069;83;21047;-75
2022/05/19 06:05:20;;;;;;;81.40;63.50;;;;;;;15.73;100.00;99453.33;1691553;84;21065;-77
2022/05/19 06:07:48;;;;;;;15.88;8.08;;;;;;;15.98;100.00;99459.39;1659666;85;21087;-75
2022/05/19 06:10:15;;;;;;;15.50;5.78;;;;;;;16.14;100.00;99482.55;1680143;85;21029;-72
2022/05/19 06:12:42;;;;;;;8.00;4.80;;;;;;;16.29;100.00;99502.17;1680391;85;21079;-75
2022/05/19 06:15:12;;;;;;;8.95;4.30;;;;;;;16.46;100.00;99528.36;1706057;83;21134;-72
2022/05/19 06:17:39;;;;;;;8.63;4.22;;;;;;;16.60;100.00;99538.65;1706510;83;21122;-72
2022/05/19 06:20:10;;;;;;;6.45;4.17;;;;;;;16.73;100.00;99554.61;1678276;85;21046;-73
2022/05/19 06:22:39;;;;;;;10.65;4.60;;;;;;;16.82;100.00;99572.38;1655686;85;21106;-74
2022/05/19 06:25:08;;;;;;;29.18;20.37;;;;;;;16.87;100.00;99598.00;1679841;85;21086;-74
2022/05/19 06:27:36;;;;;;;18.05;9.98;;;;;;;17.10;100.00;99603.34;1653525;85;21067;-72
2022/05/19 06:30:04;;;;;;;384.05;342.45;;;;;;;17.40;100.00;99608.93;1672212;85;21103;-76
2022/05/19 06:32:32;;;;;;;23.67;15.25;;;;;;;17.55;100.00;99627.71;1673865;86;21094;-75
2022/05/19 06:34:59;;;;;;;34.00;24.00;;;;;;;17.71;100.00;99634.48;1594267;86;21122;-73
2022/05/19 06:37:26;;;;;;;70.32;58.10;;;;;;;17.90;100.00;99643.55;1653886;86;21063;-76
2022/05/19 06:39:53;;;;;;;19.35;9.75;;;;;;;18.08;100.00;99644.06;1655737;84;21029;-77
2022/05/19 06:42:20;;;;;;;12.80;6.95;;;;;;;18.27;100.00;99660.44;1690180;84;21012;-74
2022/05/19 06:44:48;;;;;;;15.15;7.15;;;;;;;18.38;100.00;99666.52;1692003;83;21097;-75
2022/05/19 06:47:15;;;;;;;15.60;6.35;;;;;;;18.59;100.00;99677.46;1668232;84;21519;-75
2022/05/19 06:49:48;;;;;;;10.48;4.20;;;;;;;18.72;100.00;99707.95;1697734;83;20980;-73
2022/05/19 06:52:22;;;;;;;11.63;3.98;;;;;;;18.74;100.00;99720.88;1658727;85;21039;-77
2022/05/19 06:54:51;;;;;;;3.77;3.30;;;;;;;18.79;100.00;99734.71;1630224;87;21063;-77
2022/05/19 06:57:20;;;;;;;30.70;25.57;;;;;;;18.94;100.00;99749.37;1651966;87;21023;-75
2022/05/19 06:59:49;;;;;;;11.50;5.40;;;;;;;19.23;100.00;99753.67;1652179;87;21055;-73
2022/05/19 07:02:23;;;;;;;7.12;3.70;;;;;;;19.52;100.00;99766.48;1630116;87;21247;-73
2022/05/19 07:04:52;;;;;;;6.85;3.90;;;;;;;19.78;100.00;99782.23;1652407;87;21556;-76
2022/05/19 07:07:18;;;;;;;7.05;3.20;;;;;;;20.11;100.00;99789.00;1652486;87;21001;-70
2022/05/19 07:09:47;;;;;;;4.85;3.00;;;;;;;20.37;100.00;99815.67;1630259;87;21058;-69
2022/05/19 07:12:23;;;;;;;12.47;4.10;;;;;;;20.56;100.00;99999.01;1630379;87;21047;-76
2022/05/19 07:14:52;;;;;;;7.15;3.02;;;;;;;20.74;100.00;100111.56;1652664;87;21094;-75
2022/05/19 07:17:18;;;;;;;6.90;3.05;;;;;;;20.93;100.00;100126.56;1631945;87;21070;-78
2022/05/19 07:22:33;;;;;;;16.35;4.80;;;;;;;21.05;100.00;100140.64;1630699;87;21058;-77
2022/05/19 07:25:00;;;;;;;7.17;3.60;;;;;;;21.09;100.00;100159.39;1652086;87;21157;-75
2022/05/19 07:27:28;;;;;;;5.20;2.83;;;;;;;21.22;100.00;100151.75;1629899;87;21039;-75
2022/05/19 07:29:55;;;;;;;10.08;3.35;;;;;;;21.45;100.00;100157.50;1630036;87;21054;-77
2022/05/19 07:32:22;;;;;;;6.97;2.77;;;;;;;21.65;100.00;100159.35;1650974;85;21669;-75
2022/05/19 07:34:50;;;;;;;18.17;4.25;;;;;;;21.90;100.00;100156.34;1628701;87;21117;-75
2022/05/19 07:37:18;;;;;;;6.58;3.42;;;;;;;22.06;100.00;100159.39;1629646;87;21178;-76
2022/05/19 07:39:45;;;;;;;3.05;2.40;;;;;;;22.12;100.00;100158.42;1629843;87;21540;-75
2022/05/19 07:42:12;;;;;;;6.12;2.20;;;;;;;22.19;100.00;100158.56;1629848;87;21101;-74
2022/05/19 07:44:41;;;;;;;9.40;5.10;;;;;;;22.26;99.70;100160.36;1652479;87;21828;-75
2022/05/19 07:47:08;;;;;;;16.12;6.10;;;;;;;22.37;100.00;100163.07;1663613;86;21061;-75
2022/05/19 07:49:35;;;;;;;6.22;3.80;;;;;;;22.47;91.20;100164.34;1666760;86;21584;-77
2022/05/19 07:52:03;;;;;;;12.25;4.87;;;;;;;22.18;83.00;100160.19;1691561;84;21065;-75
2022/05/19 07:54:31;;;;;;;6.28;3.58;;;;;;;21.84;88.45;100168.85;1672908;84;21058;-75
2022/05/19 07:56:58;;;;;;;5.70;2.70;;;;;;;21.61;88.70;100163.67;1671429;85;21086;-74
2022/05/19 07:59:26;;;;;;;4.75;2.62;;;;;;;21.61;100.00;100156.80;1693537;85;20998;-75
2022/05/19 08:01:53;;;;;;;3.45;2.50;;;;;;;21.79;100.00;100162.14;1671505;85;21006;-77
2022/05/19 08:04:21;;;;;;;4.55;2.20;;;;;;;22.04;89.47;100164.30;1669988;85;21551;-76
2022/05/19 08:06:48;;;;;;;7.80;2.50;;;;;;;22.27;84.55;100154.61;1671656;85;21070;-69
2022/05/19 08:12:02;;;;;;;16.05;10.00;;;;;;;21.79;71.41;100163.52;1707767;83;21114;-78
2022/05/19 08:17:17;;;;;;;8.90;4.10;;;;;;;21.11;71.14;100154.52;1696638;84;21617;-76
2022/05/19 08:19:46;;;;;;;4.80;2.50;;;;;;;20.73;69.74;100168.11;1696537;83;20956;-75
2022/05/19 08:22:13;;;;;;;48.55;38.63;;;;;;;20.35;71.36;100160.50;1702038;83;21011;-78
2022/05/19 08:24:46;;;;;;;25.27;16.65;;;;;;;20.02;73.52;100161.77;1710832;83;21530;-81
2022/05/19 08:27:09;;;;;;;17.12;9.75;;;;;;;19.81;78.19;100164.45;1703525;83;21570;-75
2022/05/19 08:29:36;;;;;;;33.60;19.90;;;;;;;19.58;74.43;100167.84;1720563;83;21007;-76
2022/05/19 08:32:04;;;;;;;9.68;4.10;;;;;;;19.38;81.80;100171.33;1723766;83;21039;-75
2022/05/19 08:34:32;;;;;;;4.20;2.45;;;;;;;19.25;86.67;100173.13;1701405;83;21019;-73
2022/05/19 08:37:00;;;;;;;3.55;2.00;;;;;;;19.15;87.03;100164.03;1723599;83;21598;-75
2022/05/19 08:39:28;;;;;;;4.47;2.70;;;;;;;19.09;90.68;100168.23;1724978;83;21119;-75
2022/05/19 08:41:59;;;;;;;4.80;2.30;;;;;;;19.16;94.00;100170.38;1701080;83;20999;-75
2022/05/19 08:44:35;;;;;;;5.78;1.90;;;;;;;19.24;93.84;100177.47;1641152;87;21125;-75
2022/05/19 08:47:03;;;;;;;3.87;1.95;;;;;;;19.11;88.22;100173.78;1639520;87;21063;-76
2022/05/19 08:49:46;;;;;;;5.45;2.22;;;;;;;18.92;87.85;100166.02;1639849;87;21635;-73
2022/05/19 08:52:22;;;;;;;18.80;11.70;;;;;;;18.78;90.75;100178.95;1637061;87;21109;-73
2022/05/19 08:54:53;;;;;;;5.00;3.35;;;;;;;18.61;93.21;100168.23;1616754;87;21233;-76
2022/05/19 08:57:26;;;;;;;6.33;4.15;;;;;;;18.49;94.89;100175.48;1614826;87;21218;-75
2022/05/19 09:00:11;;;;;;;3.70;2.62;;;;;;;18.42;96.80;100168.67;1639673;87;21102;-75
2022/05/19 09:02:43;;;;;;;4.37;2.90;;;;;;;18.38;95.67;100171.00;1639849;87;21082;-76
2022/05/19 09:05:48;;;;;;;3.40;2.27;;;;;;;18.36;90.96;100173.13;1619040;87;21089;-76
2022/05/19 09:08:35;;;;;;;9.18;4.35;;;;;;;18.52;96.45;100164.92;1618062;87;21236;-73
2022/05/19 09:11:21;;;;;;;4.92;3.20;;;;;;;19.08;95.23;100154.20;1636468;87;21035;-74
2022/05/19 09:14:03;;;;;;;7.35;3.08;;;;;;;19.57;91.28;100159.86;1639149;87;21133;-76
2022/05/19 09:16:34;;;;;;;4.70;2.27;;;;;;;19.83;82.38;100157.36;1639544;87;21078;-74
2022/05/19 09:19:34;;;;;;;3.37;2.08;;;;;;;19.79;77.15;100151.49;1639493;87;21053;-75
2022/05/19 09:22:14;;;;;;;4.17;2.10;;;;;;;19.59;74.54;100161.84;1639644;87;21082;-77
2022/05/19 09:24:44;;;;;;;6.78;3.15;;;;;;;19.39;78.37;100162.89;1617711;87;21082;-76
2022/05/19 09:27:12;;;;;;;10.85;5.22;;;;;;;19.29;76.76;100155.70;1640151;85;21008;-78
2022/05/19 09:29:49;;;;;;;3.98;2.10;;;;;;;19.24;75.98;100161.02;1589819;89;21603;-74
2022/05/19 09:32:33;;;;;;;4.08;2.12;;;;;;;19.29;72.35;100151.05;1632286;88;21109;-73
2022/05/19 09:35:13;;;;;;;2.60;1.80;;;;;;;19.40;72.39;100152.20;1631510;88;21103;-77
2022/05/19 09:37:44;;;;;;;4.33;2.52;;;;;;;19.59;67.66;100148.13;1628164;88;21112;-76
2022/05/19 09:40:19;;;;;;;7.45;2.47;;;;;;;19.85;65.30;100148.39;1555608;90;21619;-75
2022/05/19 09:43:06;;;;;;;4.62;2.17;;;;;;;20.08;60.19;100141.65;1632658;87;21083;-75
2022/05/19 09:45:46;;;;;;;3.75;2.30;;;;;;;20.06;58.07;100143.80;1597217;89;21135;-77
2022/05/19 09:48:13;;;;;;;4.45;2.35;;;;;;;20.00;58.90;100150.19;1580567;91;21118;-76
2022/05/19 09:50:45;;;;;;;151.55;135.50;;;;;;;20.01;60.57;100153.25;1580764;91;21595;-77
2022/05/19 09:53:19;;;;;;;;;;;;;;;20.00;60.24;100153.48;1583024;90;21102;-73
2022/05/19 09:55:46;;;;;;;30.32;24.27;;;;;;;19.88;59.43;100163.86;1584892;89;20415;-73
2022/05/19 09:58:17;;;;;;;10.45;5.10;;;;;;;19.80;62.22;100153.73;1608009;89;21085;-75
2022/05/19 10:00:50;;;;;;;6.55;2.65;;;;;;;19.68;61.15;100161.30;1604806;89;21073;-76
2022/05/19 10:03:28;;;;;;;8.80;3.15;;;;;;;19.56;62.67;100165.03;1607994;89;21577;-76
2022/05/19 10:05:57;;;;;;;8.40;3.92;;;;;;;19.41;63.29;100160.75;1589739;89;21071;-76
2022/05/19 10:08:42;;;;;;;8.55;4.45;;;;;;;19.39;65.87;100156.54;1563649;91;21536;-75
2022/05/19 10:11:24;;;;;;;8.00;4.10;;;;;;;19.43;65.22;100154.50;1529756;93;21110;-77
2022/05/19 10:14:06;;;;;;;8.43;4.60;;;;;;;19.40;60.35;100156.32;1546267;93;21138;-76
2022/05/19 10:16:55;;;;;;;3.62;2.75;;;;;;;19.36;61.91;100146.88;1527612;93;21103;-77
2022/05/19 10:20:05;;;;;;;6.35;3.17;;;;;;;19.42;60.82;100150.61;1530283;93;21647;-75
2022/05/19 10:22:50;;;;;;;5.78;2.90;;;;;;;19.43;63.57;100146.28;1515398;94;21095;-76
2022/05/19 10:25:44;;;;;;;5.67;2.98;;;;;;;19.27;62.72;100145.50;1555858;92;21568;-78
2022/05/19 10:31:23;;;;;;;8.98;2.90;;;;;;;18.83;66.72;100163.80;1555592;92;20146;-78
2022/05/19 10:34:14;;;;;;;6.90;2.60;;;;;;;18.60;72.51;100182.44;1549840;92;21663;-77
2022/05/19 10:36:53;;;;;;;7.33;2.83;;;;;;;18.28;76.92;100174.73;1563016;90;21024;-77
2022/05/19 10:39:55;;;;;;;7.87;3.15;;;;;;;18.00;83.19;100172.34;1568352;90;21143;-76
2022/05/19 10:42:30;;;;;;;14.47;6.42;;;;;;;17.79;87.54;100175.63;1568459;90;21150;-81
2022/05/19 10:45:30;;;;;;;7.75;3.00;;;;;;;17.62;93.37;100175.81;1597045;89;21531;-76
2022/05/19 10:48:35;;;;;;;5.30;3.08;;;;;;;17.54;97.17;100178.23;1616186;86;21554;-75
2022/05/19 10:51:25;;;;;;;5.90;3.20;;;;;;;17.54;100.00;100175.49;1655219;86;21039;-76
2022/05/19 10:54:25;;;;;;;10.78;7.78;;;;;;;17.47;100.00;100180.13;1628896;88;21050;-78
2022/05/19 10:57:13;;;;;;;6.15;3.27;;;;;;;17.41;100.00;100184.56;1635837;88;21571;-76
2022/05/19 10:59:58;;;;;;;6.10;3.15;;;;;;;17.36;100.00;100180.26;1623137;87;21073;-76
2022/05/19 11:03:08;;;;;;;8.95;4.12;;;;;;;17.38;100.00;100176.78;1559648;92;21104;-76
2022/05/19 11:05:56;;;;;;;8.60;3.80;;;;;;;17.41;100.00;100176.36;1554023;92;21069;-75
2022/05/19 11:08:55;;;;;;;22.25;9.18;;;;;;;17.45;100.00;100177.61;1494710;95;21154;-77
2022/05/19 11:12:05;;;;;;;15.38;6.70;;;;;;;17.50;100.00;100183.81;1463100;97;21120;-76
2022/05/19 11:14:56;;;;;;;8.00;3.83;;;;;;;17.49;100.00;100180.75;1440431;96;21094;-77
2022/05/19 11:17:50;;;;;;;8.33;3.00;;;;;;;17.51;100.00;100180.05;1418084;100;21180;-79
2022/05/19 11:20:22;;;;;;;10.63;5.17;;;;;;;17.64;100.00;100176.44;1443589;98;21579;-78
2022/05/19 11:22:52;;;;;;;11.65;5.20;;;;;;;17.90;100.00;100175.55;1461426;98;21071;-79
2022/05/19 11:28:39;;;;;;;3.70;3.00;;;;;;;18.37;100.00;100169.85;1509589;95;21046;-77
2022/05/19 11:31:19;;;;;;;6.25;2.80;;;;;;;18.64;100.00;100168.31;1505021;95;21598;-78
2022/05/19 11:33:49;;;;;;;5.85;2.50;;;;;;;18.88;100.00;100166.71;1486786;95;21078;-79
2022/05/19 11:36:24;;;;;;;10.78;2.72;;;;;;;19.13;100.00;100163.42;1484415;96;21095;-78
2022/05/19 11:39:02;;;;;;;7.78;2.75;;;;;;;19.37;98.99;100160.05;1500441;92;21078;-73
2022/05/19 11:41:31;;;;;;;5.95;2.50;;;;;;;19.53;96.93;100163.05;1526963;94;21214;-74
2022/05/19 11:44:03;;;;;;;6.20;2.55;;;;;;;19.64;95.82;100166.11;1504012;94;21093;-74
2022/05/19 11:46:34;;;;;;;1.80;1.70;;;;;;;19.60;93.63;100163.50;1490702;96;21160;-76
2022/05/19 11:55:45;;;;;;;2.08;1.70;;;;;;;18.84;86.46;100164.09;1486058;96;21102;-75
2022/05/19 11:58:20;;;;;;;3.22;1.90;;;;;;;18.55;88.36;100163.09;1488219;96;21168;-74
2022/05/19 12:03:45;;;;;;;4.67;2.20;;;;;;;18.43;91.52;100166.77;1446273;99;21159;-77
2022/05/19 12:06:18;;;;;;;6.42;4.50;;;;;;;18.47;92.48;100156.53;1479453;95;21105;-77
2022/05/19 12:08:59;;;;;;;9.95;3.50;;;;;;;18.58;93.72;100161.83;1526618;93;21116;-72
2022/05/19 12:11:48;;;;;;;7.62;3.45;;;;;;;18.72;94.95;100158.48;1536764;93;21180;-69
2022/05/19 12:14:30;;;;;;;3.00;2.50;;;;;;;18.88;93.50;100147.53;1528951;93;21079;-73